sensor_id;sensor_type;location;lat;lon;timestamp;P1;durP1;ratioP1;P2;durP2;ratioP2
15679;SDS011;15488;48.114;11.532;2023-04-24T00:02:21;0.57;;;0.50;;
15679;SDS011;15488;48.114;11.532;2023-04-24T00:04:49;1.47;;;0.53;;
15679;SDS011;15488;48.114;11.532;2023-04-24T00:07:16;1.07;;;0.50;;
15679;SDS011;15488;48.114;11.532;2023-04-24T00:09:45;1.17;;;0.53;;
15679;SDS011;15488;48.114;11.532;2023-04-24T00:12:12;4.60;;;2.83;;
15679;SDS011;15488;48.114;11.532;2023-04-24T00:14:41;0.97;;;0.50;;
15679;SDS011;15488;48.114;11.532;2023-04-24T00:17:09;0.77;;;0.50;;
15679;SDS011;15488;48.114;11.532;2023-04-24T00:19:36;0.30;;;0.30;;
15679;SDS011;15488;48.114;11.532;2023-04-24T00:22:03;1.20;;;0.40;;
15679;SDS011;15488;48.114;11.532;2023-04-24T00:24:31;0.30;;;0.30;;
15679;SDS011;15488;48.114;11.532;2023-04-24T00:27:00;0.43;;;0.37;;
15679;SDS011;15488;48.114;11.532;2023-04-24T00:29:28;0.60;;;0.40;;
15679;SDS011;15488;48.114;11.532;2023-04-24T00:31:57;0.37;;;0.30;;
15679;SDS011;15488;48.114;11.532;2023-04-24T00:34:24;0.57;;;0.43;;
15679;SDS011;15488;48.114;11.532;2023-04-24T00:36:52;0.50;;;0.37;;
15679;SDS011;15488;48.114;11.532;2023-04-24T00:39:20;0.53;;;0.30;;
15679;SDS011;15488;48.114;11.532;2023-04-24T00:41:47;0.93;;;0.40;;
15679;SDS011;15488;48.114;11.532;2023-04-24T00:44:16;2.10;;;0.30;;
15679;SDS011;15488;48.114;11.532;2023-04-24T00:46:43;0.40;;;0.40;;
15679;SDS011;15488;48.114;11.532;2023-04-24T00:49:13;0.37;;;0.30;;
15679;SDS011;15488;48.114;11.532;2023-04-24T00:51:40;0.47;;;0.30;;
15679;SDS011;15488;48.114;11.532;2023-04-24T00:54:10;0.40;;;0.40;;
15679;SDS011;15488;48.114;11.532;2023-04-24T00:56:37;1.40;;;0.30;;
15679;SDS011;15488;48.114;11.532;2023-04-24T00:59:05;0.60;;;0.30;;
15679;SDS011;15488;48.114;11.532;2023-04-24T01:01:33;0.77;;;0.30;;
15679;SDS011;15488;48.114;11.532;2023-04-24T01:04:02;1.07;;;0.37;;
15679;SDS011;15488;48.114;11.532;2023-04-24T01:06:30;0.93;;;0.37;;
15679;SDS011;15488;48.114;11.532;2023-04-24T01:08:58;0.30;;;0.30;;
15679;SDS011;15488;48.114;11.532;2023-04-24T01:11:26;0.30;;;0.23;;
15679;SDS011;15488;48.114;11.532;2023-04-24T01:13:54;0.53;;;0.30;;
15679;SDS011;15488;48.114;11.532;2023-04-24T01:16:22;0.20;;;0.20;;
15679;SDS011;15488;48.114;11.532;2023-04-24T01:18:50;0.20;;;0.20;;
15679;SDS011;15488;48.114;11.532;2023-04-24T01:21:17;1.17;;;0.30;;
15679;SDS011;15488;48.114;11.532;2023-04-24T01:23:48;0.67;;;0.23;;
15679;SDS011;15488;48.114;11.532;2023-04-24T01:26:16;0.30;;;0.30;;
15679;SDS011;15488;48.114;11.532;2023-04-24T01:28:45;0.10;;;0.10;;
15679;SDS011;15488;48.114;11.532;2023-04-24T01:31:13;0.40;;;0.20;;
15679;SDS011;15488;48.114;11.532;2023-04-24T01:33:41;0.20;;;0.20;;
15679;SDS011;15488;48.114;11.532;2023-04-24T01:36:09;0.13;;;0.13;;
15679;SDS011;15488;48.114;11.532;2023-04-24T01:38:37;0.20;;;0.20;;
15679;SDS011;15488;48.114;11.532;2023-04-24T01:41:06;0.40;;;0.30;;
15679;SDS011;15488;48.114;11.532;2023-04-24T01:43:34;0.30;;;0.27;;
15679;SDS011;15488;48.114;11.532;2023-04-24T01:46:01;0.20;;;0.20;;
15679;SDS011;15488;48.114;11.532;2023-04-24T01:48:29;3.23;;;0.30;;
15679;SDS011;15488;48.114;11.532;2023-04-24T01:50:57;0.10;;;0.10;;
15679;SDS011;15488;48.114;11.532;2023-04-24T01:53:25;0.50;;;0.20;;
15679;SDS011;15488;48.114;11.532;2023-04-24T01:55:53;0.10;;;0.10;;
15679;SDS011;15488;48.114;11.532;2023-04-24T01:58:22;0.73;;;0.30;;
15679;SDS011;15488;48.114;11.532;2023-04-24T02:00:49;0.93;;;0.20;;
15679;SDS011;15488;48.114;11.532;2023-04-24T02:03:17;0.30;;;0.20;;
15679;SDS011;15488;48.114;11.532;2023-04-24T02:05:44;0.10;;;0.10;;
15679;SDS011;15488;48.114;11.532;2023-04-24T02:08:12;0.30;;;0.10;;
15679;SDS011;15488;48.114;11.532;2023-04-24T02:10:39;0.20;;;0.20;;
15679;SDS011;15488;48.114;11.532;2023-04-24T02:13:07;0.20;;;0.10;;
15679;SDS011;15488;48.114;11.532;2023-04-24T02:15:36;0.10;;;0.10;;
15679;SDS011;15488;48.114;11.532;2023-04-24T02:18:03;0.20;;;0.20;;
15679;SDS011;15488;48.114;11.532;2023-04-24T02:20:31;0.50;;;0.20;;
15679;SDS011;15488;48.114;11.532;2023-04-24T02:23:00;0.87;;;0.20;;
15679;SDS011;15488;48.114;11.532;2023-04-24T02:25:27;0.73;;;0.30;;
15679;SDS011;15488;48.114;11.532;2023-04-24T02:27:55;0.20;;;0.20;;
15679;SDS011;15488;48.114;11.532;2023-04-24T02:30:22;1.30;;;0.23;;
15679;SDS011;15488;48.114;11.532;2023-04-24T02:32:51;0.20;;;0.20;;
15679;SDS011;15488;48.114;11.532;2023-04-24T02:35:19;0.63;;;0.20;;
15679;SDS011;15488;48.114;11.532;2023-04-24T02:37:46;0.40;;;0.30;;
15679;SDS011;15488;48.114;11.532;2023-04-24T02:40:14;0.30;;;0.17;;
15679;SDS011;15488;48.114;11.532;2023-04-24T02:42:41;1.53;;;0.30;;
15679;SDS011;15488;48.114;11.532;2023-04-24T02:45:10;0.20;;;0.20;;
15679;SDS011;15488;48.114;11.532;2023-04-24T02:47:37;0.40;;;0.27;;
15679;SDS011;15488;48.114;11.532;2023-04-24T02:50:07;0.53;;;0.10;;
15679;SDS011;15488;48.114;11.532;2023-04-24T02:52:34;1.03;;;0.23;;
15679;SDS011;15488;48.114;11.532;2023-04-24T02:55:02;0.60;;;0.20;;
15679;SDS011;15488;48.114;11.532;2023-04-24T02:57:31;0.10;;;0.10;;
15679;SDS011;15488;48.114;11.532;2023-04-24T02:59:58;0.57;;;0.20;;
15679;SDS011;15488;48.114;11.532;2023-04-24T03:02:26;0.70;;;0.20;;
15679;SDS011;15488;48.114;11.532;2023-04-24T03:04:53;0.20;;;0.10;;
15679;SDS011;15488;48.114;11.532;2023-04-24T03:07:23;0.87;;;0.50;;
15679;SDS011;15488;48.114;11.532;2023-04-24T03:09:50;0.23;;;0.20;;
15679;SDS011;15488;48.114;11.532;2023-04-24T03:12:18;0.53;;;0.23;;
15679;SDS011;15488;48.114;11.532;2023-04-24T03:14:45;0.10;;;0.10;;
15679;SDS011;15488;48.114;11.532;2023-04-24T03:17:13;0.23;;;0.10;;
15679;SDS011;15488;48.114;11.532;2023-04-24T03:19:40;0.20;;;0.20;;
15679;SDS011;15488;48.114;11.532;2023-04-24T03:22:08;0.27;;;0.27;;
15679;SDS011;15488;48.114;11.532;2023-04-24T03:24:37;0.40;;;0.27;;
15679;SDS011;15488;48.114;11.532;2023-04-24T03:27:05;0.83;;;0.20;;
15679;SDS011;15488;48.114;11.532;2023-04-24T03:29:32;0.20;;;0.20;;
15679;SDS011;15488;48.114;11.532;2023-04-24T03:32:00;1.47;;;0.20;;
15679;SDS011;15488;48.114;11.532;2023-04-24T03:34:27;1.43;;;0.40;;
15679;SDS011;15488;48.114;11.532;2023-04-24T03:36:55;0.20;;;0.10;;
15679;SDS011;15488;48.114;11.532;2023-04-24T03:39:22;0.90;;;0.23;;
15679;SDS011;15488;48.114;11.532;2023-04-24T03:41:51;0.47;;;0.47;;
15679;SDS011;15488;48.114;11.532;2023-04-24T03:44:19;0.40;;;0.30;;
15679;SDS011;15488;48.114;11.532;2023-04-24T03:46:46;0.43;;;0.30;;
15679;SDS011;15488;48.114;11.532;2023-04-24T03:49:14;0.50;;;0.30;;
15679;SDS011;15488;48.114;11.532;2023-04-24T03:51:41;1.27;;;0.30;;
15679;SDS011;15488;48.114;11.532;2023-04-24T03:54:08;0.97;;;0.37;;
15679;SDS011;15488;48.114;11.532;2023-04-24T03:56:36;0.50;;;0.20;;
15679;SDS011;15488;48.114;11.532;2023-04-24T03:59:05;0.47;;;0.27;;
15679;SDS011;15488;48.114;11.532;2023-04-24T04:01:32;0.50;;;0.30;;
15679;SDS011;15488;48.114;11.532;2023-04-24T04:04:02;0.20;;;0.20;;
15679;SDS011;15488;48.114;11.532;2023-04-24T04:06:29;0.20;;;0.20;;
15679;SDS011;15488;48.114;11.532;2023-04-24T04:08:57;0.50;;;0.20;;
15679;SDS011;15488;48.114;11.532;2023-04-24T04:11:25;0.30;;;0.30;;
15679;SDS011;15488;48.114;11.532;2023-04-24T04:13:53;0.43;;;0.30;;
15679;SDS011;15488;48.114;11.532;2023-04-24T04:16:21;1.10;;;0.30;;
15679;SDS011;15488;48.114;11.532;2023-04-24T04:18:49;0.40;;;0.30;;
15679;SDS011;15488;48.114;11.532;2023-04-24T04:21:17;0.60;;;0.30;;
15679;SDS011;15488;48.114;11.532;2023-04-24T04:23:44;0.30;;;0.30;;
15679;SDS011;15488;48.114;11.532;2023-04-24T04:26:12;0.80;;;0.20;;
15679;SDS011;15488;48.114;11.532;2023-04-24T04:28:39;0.70;;;0.40;;
15679;SDS011;15488;48.114;11.532;2023-04-24T04:31:07;1.50;;;0.20;;
15679;SDS011;15488;48.114;11.532;2023-04-24T04:33:36;0.50;;;0.30;;
15679;SDS011;15488;48.114;11.532;2023-04-24T04:36:04;0.83;;;0.20;;
15679;SDS011;15488;48.114;11.532;2023-04-24T04:38:32;1.53;;;0.50;;
15679;SDS011;15488;48.114;11.532;2023-04-24T04:41:00;0.23;;;0.23;;
15679;SDS011;15488;48.114;11.532;2023-04-24T04:43:28;0.47;;;0.20;;
15679;SDS011;15488;48.114;11.532;2023-04-24T04:45:55;1.00;;;0.27;;
15679;SDS011;15488;48.114;11.532;2023-04-24T04:48:25;0.50;;;0.20;;
15679;SDS011;15488;48.114;11.532;2023-04-24T04:50:55;0.63;;;0.30;;
15679;SDS011;15488;48.114;11.532;2023-04-24T04:53:22;0.73;;;0.30;;
15679;SDS011;15488;48.114;11.532;2023-04-24T04:55:50;0.83;;;0.30;;
15679;SDS011;15488;48.114;11.532;2023-04-24T04:58:17;0.50;;;0.23;;
15679;SDS011;15488;48.114;11.532;2023-04-24T05:00:45;0.70;;;0.30;;
15679;SDS011;15488;48.114;11.532;2023-04-24T05:03:12;0.30;;;0.30;;
15679;SDS011;15488;48.114;11.532;2023-04-24T05:05:40;1.60;;;0.30;;
15679;SDS011;15488;48.114;11.532;2023-04-24T05:08:08;0.30;;;0.20;;
15679;SDS011;15488;48.114;11.532;2023-04-24T05:10:36;0.87;;;0.27;;
15679;SDS011;15488;48.114;11.532;2023-04-24T05:13:03;1.17;;;0.30;;
15679;SDS011;15488;48.114;11.532;2023-04-24T05:15:31;0.27;;;0.20;;
15679;SDS011;15488;48.114;11.532;2023-04-24T05:17:59;0.33;;;0.20;;
15679;SDS011;15488;48.114;11.532;2023-04-24T05:20:26;1.23;;;0.30;;
15679;SDS011;15488;48.114;11.532;2023-04-24T05:22:53;2.53;;;0.40;;
15679;SDS011;15488;48.114;11.532;2023-04-24T05:25:22;0.40;;;0.17;;
15679;SDS011;15488;48.114;11.532;2023-04-24T05:27:50;0.17;;;0.17;;
15679;SDS011;15488;48.114;11.532;2023-04-24T05:30:18;0.70;;;0.30;;
15679;SDS011;15488;48.114;11.532;2023-04-24T05:32:48;0.20;;;0.10;;
15679;SDS011;15488;48.114;11.532;2023-04-24T05:35:16;0.30;;;0.20;;
15679;SDS011;15488;48.114;11.532;2023-04-24T05:37:44;0.23;;;0.20;;
15679;SDS011;15488;48.114;11.532;2023-04-24T05:40:12;0.33;;;0.30;;
15679;SDS011;15488;48.114;11.532;2023-04-24T05:42:41;0.20;;;0.20;;
15679;SDS011;15488;48.114;11.532;2023-04-24T05:45:08;0.30;;;0.20;;
15679;SDS011;15488;48.114;11.532;2023-04-24T05:47:41;0.20;;;0.20;;
15679;SDS011;15488;48.114;11.532;2023-04-24T05:50:10;0.30;;;0.10;;
15679;SDS011;15488;48.114;11.532;2023-04-24T05:52:37;0.10;;;0.10;;
15679;SDS011;15488;48.114;11.532;2023-04-24T05:55:05;0.70;;;0.20;;
15679;SDS011;15488;48.114;11.532;2023-04-24T05:57:33;0.50;;;0.20;;
15679;SDS011;15488;48.114;11.532;2023-04-24T06:00:02;0.30;;;0.20;;
15679;SDS011;15488;48.114;11.532;2023-04-24T06:02:31;0.23;;;0.20;;
15679;SDS011;15488;48.114;11.532;2023-04-24T06:04:58;0.73;;;0.20;;
15679;SDS011;15488;48.114;11.532;2023-04-24T06:07:25;0.30;;;0.20;;
15679;SDS011;15488;48.114;11.532;2023-04-24T06:09:53;0.40;;;0.30;;
15679;SDS011;15488;48.114;11.532;2023-04-24T06:12:21;0.17;;;0.17;;
15679;SDS011;15488;48.114;11.532;2023-04-24T06:14:49;0.27;;;0.23;;
15679;SDS011;15488;48.114;11.532;2023-04-24T06:17:18;1.17;;;0.20;;
15679;SDS011;15488;48.114;11.532;2023-04-24T06:19:46;0.70;;;0.30;;
15679;SDS011;15488;48.114;11.532;2023-04-24T06:22:13;0.30;;;0.20;;
15679;SDS011;15488;48.114;11.532;2023-04-24T06:24:41;0.53;;;0.40;;
15679;SDS011;15488;48.114;11.532;2023-04-24T06:27:08;0.30;;;0.20;;
15679;SDS011;15488;48.114;11.532;2023-04-24T06:29:36;1.10;;;0.30;;
15679;SDS011;15488;48.114;11.532;2023-04-24T06:32:03;0.87;;;0.30;;
15679;SDS011;15488;48.114;11.532;2023-04-24T06:34:32;0.33;;;0.20;;
15679;SDS011;15488;48.114;11.532;2023-04-24T06:37:00;0.23;;;0.10;;
15679;SDS011;15488;48.114;11.532;2023-04-24T06:39:29;0.10;;;0.10;;
15679;SDS011;15488;48.114;11.532;2023-04-24T06:41:57;0.40;;;0.20;;
15679;SDS011;15488;48.114;11.532;2023-04-24T06:44:25;0.10;;;0.10;;
15679;SDS011;15488;48.114;11.532;2023-04-24T06:46:52;0.90;;;0.50;;
15679;SDS011;15488;48.114;11.532;2023-04-24T06:49:20;0.30;;;0.10;;
15679;SDS011;15488;48.114;11.532;2023-04-24T06:51:49;1.20;;;0.23;;
15679;SDS011;15488;48.114;11.532;2023-04-24T06:54:16;0.60;;;0.20;;
15679;SDS011;15488;48.114;11.532;2023-04-24T06:56:43;0.20;;;0.20;;
15679;SDS011;15488;48.114;11.532;2023-04-24T06:59:12;0.20;;;0.20;;
15679;SDS011;15488;48.114;11.532;2023-04-24T07:01:40;0.63;;;0.20;;
15679;SDS011;15488;48.114;11.532;2023-04-24T07:04:07;0.10;;;0.10;;
15679;SDS011;15488;48.114;11.532;2023-04-24T07:06:35;0.30;;;0.30;;
15679;SDS011;15488;48.114;11.532;2023-04-24T07:09:04;0.20;;;0.10;;
15679;SDS011;15488;48.114;11.532;2023-04-24T07:11:32;0.50;;;0.20;;
15679;SDS011;15488;48.114;11.532;2023-04-24T07:14:01;1.13;;;0.20;;
15679;SDS011;15488;48.114;11.532;2023-04-24T07:16:29;1.20;;;0.30;;
15679;SDS011;15488;48.114;11.532;2023-04-24T07:18:56;1.63;;;1.00;;
15679;SDS011;15488;48.114;11.532;2023-04-24T07:21:24;0.93;;;0.30;;
15679;SDS011;15488;48.114;11.532;2023-04-24T07:23:52;0.20;;;0.20;;
15679;SDS011;15488;48.114;11.532;2023-04-24T07:26:21;0.20;;;0.20;;
15679;SDS011;15488;48.114;11.532;2023-04-24T07:28:48;1.43;;;0.30;;
15679;SDS011;15488;48.114;11.532;2023-04-24T07:31:16;0.20;;;0.10;;
15679;SDS011;15488;48.114;11.532;2023-04-24T07:33:43;0.40;;;0.10;;
15679;SDS011;15488;48.114;11.532;2023-04-24T07:36:11;0.50;;;0.20;;
15679;SDS011;15488;48.114;11.532;2023-04-24T07:38:42;0.67;;;0.10;;
15679;SDS011;15488;48.114;11.532;2023-04-24T07:41:09;0.20;;;0.10;;
15679;SDS011;15488;48.114;11.532;2023-04-24T07:43:38;0.13;;;0.13;;
15679;SDS011;15488;48.114;11.532;2023-04-24T07:46:05;0.40;;;0.20;;
15679;SDS011;15488;48.114;11.532;2023-04-24T07:48:33;0.30;;;0.10;;
15679;SDS011;15488;48.114;11.532;2023-04-24T07:51:01;0.47;;;0.20;;
15679;SDS011;15488;48.114;11.532;2023-04-24T07:53:28;0.30;;;0.30;;
15679;SDS011;15488;48.114;11.532;2023-04-24T07:55:56;0.67;;;0.10;;
15679;SDS011;15488;48.114;11.532;2023-04-24T07:58:23;0.10;;;0.10;;
15679;SDS011;15488;48.114;11.532;2023-04-24T08:00:52;0.43;;;0.20;;
15679;SDS011;15488;48.114;11.532;2023-04-24T08:03:20;0.60;;;0.20;;
15679;SDS011;15488;48.114;11.532;2023-04-24T08:05:47;0.20;;;0.20;;
15679;SDS011;15488;48.114;11.532;2023-04-24T08:08:16;0.33;;;0.30;;
15679;SDS011;15488;48.114;11.532;2023-04-24T08:10:43;0.57;;;0.40;;
15679;SDS011;15488;48.114;11.532;2023-04-24T08:13:11;0.47;;;0.47;;
15679;SDS011;15488;48.114;11.532;2023-04-24T08:15:38;0.23;;;0.10;;
15679;SDS011;15488;48.114;11.532;2023-04-24T08:18:07;0.30;;;0.23;;
15679;SDS011;15488;48.114;11.532;2023-04-24T08:20:36;1.03;;;0.20;;
15679;SDS011;15488;48.114;11.532;2023-04-24T08:23:04;1.03;;;0.30;;
15679;SDS011;15488;48.114;11.532;2023-04-24T08:25:32;1.27;;;0.20;;
15679;SDS011;15488;48.114;11.532;2023-04-24T08:28:00;0.30;;;0.20;;
15679;SDS011;15488;48.114;11.532;2023-04-24T08:30:29;1.17;;;0.20;;
15679;SDS011;15488;48.114;11.532;2023-04-24T08:32:57;0.13;;;0.10;;
15679;SDS011;15488;48.114;11.532;2023-04-24T08:35:26;0.37;;;0.37;;
15679;SDS011;15488;48.114;11.532;2023-04-24T08:37:53;0.20;;;0.20;;
15679;SDS011;15488;48.114;11.532;2023-04-24T08:40:22;0.40;;;0.20;;
15679;SDS011;15488;48.114;11.532;2023-04-24T08:42:55;0.30;;;0.30;;
15679;SDS011;15488;48.114;11.532;2023-04-24T08:45:23;0.50;;;0.30;;
15679;SDS011;15488;48.114;11.532;2023-04-24T08:47:51;0.23;;;0.20;;
15679;SDS011;15488;48.114;11.532;2023-04-24T08:50:19;0.70;;;0.40;;
15679;SDS011;15488;48.114;11.532;2023-04-24T08:52:48;0.60;;;0.50;;
15679;SDS011;15488;48.114;11.532;2023-04-24T08:55:18;1.70;;;0.70;;
15679;SDS011;15488;48.114;11.532;2023-04-24T08:57:50;0.80;;;0.80;;
15679;SDS011;15488;48.114;11.532;2023-04-24T09:00:19;2.77;;;2.10;;
15679;SDS011;15488;48.114;11.532;2023-04-24T09:02:48;0.90;;;0.90;;
15679;SDS011;15488;48.114;11.532;2023-04-24T09:05:16;1.17;;;0.83;;
15679;SDS011;15488;48.114;11.532;2023-04-24T09:07:45;0.97;;;0.60;;
15679;SDS011;15488;48.114;11.532;2023-04-24T09:10:17;0.60;;;0.60;;
15679;SDS011;15488;48.114;11.532;2023-04-24T09:12:44;1.17;;;0.57;;
15679;SDS011;15488;48.114;11.532;2023-04-24T09:15:12;0.50;;;0.47;;
15679;SDS011;15488;48.114;11.532;2023-04-24T09:17:40;2.00;;;0.60;;
15679;SDS011;15488;48.114;11.532;2023-04-24T09:20:08;0.80;;;0.70;;
15679;SDS011;15488;48.114;11.532;2023-04-24T09:22:36;0.53;;;0.53;;
15679;SDS011;15488;48.114;11.532;2023-04-24T09:25:04;0.50;;;0.50;;
15679;SDS011;15488;48.114;11.532;2023-04-24T09:27:35;0.70;;;0.70;;
15679;SDS011;15488;48.114;11.532;2023-04-24T09:30:03;2.17;;;1.00;;
15679;SDS011;15488;48.114;11.532;2023-04-24T09:32:32;1.20;;;1.00;;
15679;SDS011;15488;48.114;11.532;2023-04-24T09:35:10;1.00;;;0.80;;
15679;SDS011;15488;48.114;11.532;2023-04-24T09:37:39;0.70;;;0.50;;
15679;SDS011;15488;48.114;11.532;2023-04-24T09:40:11;0.50;;;0.50;;
15679;SDS011;15488;48.114;11.532;2023-04-24T09:42:44;1.23;;;0.77;;
15679;SDS011;15488;48.114;11.532;2023-04-24T09:45:12;0.80;;;0.60;;
15679;SDS011;15488;48.114;11.532;2023-04-24T09:47:40;0.87;;;0.67;;
15679;SDS011;15488;48.114;11.532;2023-04-24T09:50:09;0.80;;;0.70;;
15679;SDS011;15488;48.114;11.532;2023-04-24T09:52:44;0.70;;;0.60;;
15679;SDS011;15488;48.114;11.532;2023-04-24T09:55:14;1.10;;;0.60;;
15679;SDS011;15488;48.114;11.532;2023-04-24T09:57:49;1.30;;;0.80;;
15679;SDS011;15488;48.114;11.532;2023-04-24T10:00:18;0.77;;;0.70;;
15679;SDS011;15488;48.114;11.532;2023-04-24T10:02:50;0.83;;;0.80;;
15679;SDS011;15488;48.114;11.532;2023-04-24T10:05:27;0.70;;;0.70;;
15679;SDS011;15488;48.114;11.532;2023-04-24T10:07:56;1.07;;;0.97;;
15679;SDS011;15488;48.114;11.532;2023-04-24T10:10:26;1.00;;;0.90;;
15679;SDS011;15488;48.114;11.532;2023-04-24T10:12:55;0.70;;;0.70;;
15679;SDS011;15488;48.114;11.532;2023-04-24T10:15:23;1.10;;;1.00;;
15679;SDS011;15488;48.114;11.532;2023-04-24T10:17:52;1.00;;;0.70;;
15679;SDS011;15488;48.114;11.532;2023-04-24T10:20:20;0.70;;;0.70;;
15679;SDS011;15488;48.114;11.532;2023-04-24T10:22:50;1.27;;;1.17;;
15679;SDS011;15488;48.114;11.532;2023-04-24T10:25:19;1.17;;;1.00;;
15679;SDS011;15488;48.114;11.532;2023-04-24T10:27:48;1.43;;;1.03;;
15679;SDS011;15488;48.114;11.532;2023-04-24T10:30:18;0.80;;;0.80;;
15679;SDS011;15488;48.114;11.532;2023-04-24T10:32:46;0.80;;;0.70;;
15679;SDS011;15488;48.114;11.532;2023-04-24T10:35:14;1.30;;;1.10;;
15679;SDS011;15488;48.114;11.532;2023-04-24T10:37:44;1.03;;;1.00;;
15679;SDS011;15488;48.114;11.532;2023-04-24T10:40:16;1.20;;;0.90;;
15679;SDS011;15488;48.114;11.532;2023-04-24T10:42:47;1.10;;;1.00;;
15679;SDS011;15488;48.114;11.532;2023-04-24T10:45:19;1.60;;;0.97;;
15679;SDS011;15488;48.114;11.532;2023-04-24T10:47:56;1.10;;;1.00;;
15679;SDS011;15488;48.114;11.532;2023-04-24T10:50:26;1.33;;;0.87;;
15679;SDS011;15488;48.114;11.532;2023-04-24T10:53:05;0.90;;;0.80;;
15679;SDS011;15488;48.114;11.532;2023-04-24T10:55:41;0.83;;;0.57;;
15679;SDS011;15488;48.114;11.532;2023-04-24T10:58:10;0.50;;;0.50;;
15679;SDS011;15488;48.114;11.532;2023-04-24T11:00:40;1.67;;;0.60;;
15679;SDS011;15488;48.114;11.532;2023-04-24T11:03:12;0.87;;;0.40;;
15679;SDS011;15488;48.114;11.532;2023-04-24T11:05:51;0.70;;;0.40;;
15679;SDS011;15488;48.114;11.532;2023-04-24T11:08:23;0.40;;;0.30;;
15679;SDS011;15488;48.114;11.532;2023-04-24T11:11:02;0.40;;;0.40;;
15679;SDS011;15488;48.114;11.532;2023-04-24T11:16:33;0.80;;;0.60;;
15679;SDS011;15488;48.114;11.532;2023-04-24T11:19:04;0.80;;;0.50;;
15679;SDS011;15488;48.114;11.532;2023-04-24T11:21:39;1.43;;;0.70;;
15679;SDS011;15488;48.114;11.532;2023-04-24T11:24:24;1.03;;;0.87;;
15679;SDS011;15488;48.114;11.532;2023-04-24T11:26:56;0.90;;;0.80;;
15679;SDS011;15488;48.114;11.532;2023-04-24T11:29:39;1.23;;;0.80;;
15679;SDS011;15488;48.114;11.532;2023-04-24T11:32:17;1.60;;;1.33;;
15679;SDS011;15488;48.114;11.532;2023-04-24T11:34:49;1.70;;;1.10;;
15679;SDS011;15488;48.114;11.532;2023-04-24T11:37:18;1.80;;;1.33;;
15679;SDS011;15488;48.114;11.532;2023-04-24T11:39:46;1.70;;;1.30;;
15679;SDS011;15488;48.114;11.532;2023-04-24T11:42:15;1.53;;;1.23;;
15679;SDS011;15488;48.114;11.532;2023-04-24T11:44:44;1.30;;;1.20;;
15679;SDS011;15488;48.114;11.532;2023-04-24T11:47:13;1.30;;;1.00;;
15679;SDS011;15488;48.114;11.532;2023-04-24T11:49:42;1.07;;;0.80;;
15679;SDS011;15488;48.114;11.532;2023-04-24T11:52:10;1.00;;;0.90;;
15679;SDS011;15488;48.114;11.532;2023-04-24T11:54:46;1.47;;;0.90;;
15679;SDS011;15488;48.114;11.532;2023-04-24T11:57:14;1.03;;;0.87;;
15679;SDS011;15488;48.114;11.532;2023-04-24T11:59:42;1.67;;;0.80;;
15679;SDS011;15488;48.114;11.532;2023-04-24T12:02:19;1.80;;;0.80;;
15679;SDS011;15488;48.114;11.532;2023-04-24T12:04:49;1.40;;;0.83;;
15679;SDS011;15488;48.114;11.532;2023-04-24T12:07:17;1.10;;;0.83;;
15679;SDS011;15488;48.114;11.532;2023-04-24T12:09:45;0.73;;;0.70;;
15679;SDS011;15488;48.114;11.532;2023-04-24T12:12:15;0.80;;;0.70;;
15679;SDS011;15488;48.114;11.532;2023-04-24T12:14:43;0.77;;;0.70;;
15679;SDS011;15488;48.114;11.532;2023-04-24T12:17:13;1.07;;;0.80;;
15679;SDS011;15488;48.114;11.532;2023-04-24T12:19:44;1.40;;;1.13;;
15679;SDS011;15488;48.114;11.532;2023-04-24T12:22:14;1.10;;;0.90;;
15679;SDS011;15488;48.114;11.532;2023-04-24T12:24:58;1.30;;;1.00;;
15679;SDS011;15488;48.114;11.532;2023-04-24T12:27:28;1.73;;;0.80;;
15679;SDS011;15488;48.114;11.532;2023-04-24T12:29:57;1.03;;;0.90;;
15679;SDS011;15488;48.114;11.532;2023-04-24T12:32:26;1.73;;;1.40;;
15679;SDS011;15488;48.114;11.532;2023-04-24T12:34:54;1.50;;;1.00;;
15679;SDS011;15488;48.114;11.532;2023-04-24T12:37:24;1.10;;;0.70;;
15679;SDS011;15488;48.114;11.532;2023-04-24T12:39:59;1.57;;;0.70;;
15679;SDS011;15488;48.114;11.532;2023-04-24T12:42:28;1.03;;;0.60;;
15679;SDS011;15488;48.114;11.532;2023-04-24T12:44:56;1.17;;;0.77;;
15679;SDS011;15488;48.114;11.532;2023-04-24T12:47:26;1.10;;;0.90;;
15679;SDS011;15488;48.114;11.532;2023-04-24T12:49:54;0.80;;;0.80;;
15679;SDS011;15488;48.114;11.532;2023-04-24T12:52:21;2.23;;;1.03;;
15679;SDS011;15488;48.114;11.532;2023-04-24T12:54:52;1.10;;;0.83;;
15679;SDS011;15488;48.114;11.532;2023-04-24T12:57:20;2.60;;;0.87;;
15679;SDS011;15488;48.114;11.532;2023-04-24T12:59:48;2.13;;;1.10;;
15679;SDS011;15488;48.114;11.532;2023-04-24T13:02:16;1.73;;;0.90;;
15679;SDS011;15488;48.114;11.532;2023-04-24T13:04:44;1.10;;;0.90;;
15679;SDS011;15488;48.114;11.532;2023-04-24T13:07:12;1.27;;;0.90;;
15679;SDS011;15488;48.114;11.532;2023-04-24T13:09:41;1.70;;;0.90;;
15679;SDS011;15488;48.114;11.532;2023-04-24T13:12:09;1.90;;;1.00;;
15679;SDS011;15488;48.114;11.532;2023-04-24T13:14:38;1.10;;;1.00;;
15679;SDS011;15488;48.114;11.532;2023-04-24T13:17:05;2.07;;;0.93;;
15679;SDS011;15488;48.114;11.532;2023-04-24T13:19:35;1.23;;;0.97;;
15679;SDS011;15488;48.114;11.532;2023-04-24T13:22:03;0.90;;;0.90;;
15679;SDS011;15488;48.114;11.532;2023-04-24T13:24:31;0.90;;;0.80;;
15679;SDS011;15488;48.114;11.532;2023-04-24T13:27:00;1.60;;;1.20;;
15679;SDS011;15488;48.114;11.532;2023-04-24T13:29:28;1.40;;;0.87;;
15679;SDS011;15488;48.114;11.532;2023-04-24T13:31:56;1.73;;;0.90;;
15679;SDS011;15488;48.114;11.532;2023-04-24T13:34:23;1.20;;;1.10;;
15679;SDS011;15488;48.114;11.532;2023-04-24T13:36:52;2.30;;;1.10;;
15679;SDS011;15488;48.114;11.532;2023-04-24T13:39:21;1.80;;;1.20;;
15679;SDS011;15488;48.114;11.532;2023-04-24T13:41:49;2.63;;;1.07;;
15679;SDS011;15488;48.114;11.532;2023-04-24T13:44:18;1.20;;;1.10;;
15679;SDS011;15488;48.114;11.532;2023-04-24T13:46:47;0.93;;;0.93;;
15679;SDS011;15488;48.114;11.532;2023-04-24T13:49:16;1.97;;;1.00;;
15679;SDS011;15488;48.114;11.532;2023-04-24T13:51:44;1.27;;;0.93;;
15679;SDS011;15488;48.114;11.532;2023-04-24T13:54:12;1.40;;;1.10;;
15679;SDS011;15488;48.114;11.532;2023-04-24T13:56:40;1.43;;;0.93;;
15679;SDS011;15488;48.114;11.532;2023-04-24T13:59:08;2.13;;;1.00;;
15679;SDS011;15488;48.114;11.532;2023-04-24T14:01:37;1.37;;;1.00;;
15679;SDS011;15488;48.114;11.532;2023-04-24T14:04:04;1.50;;;0.97;;
15679;SDS011;15488;48.114;11.532;2023-04-24T14:06:31;1.27;;;0.90;;
15679;SDS011;15488;48.114;11.532;2023-04-24T14:08:59;1.53;;;0.90;;
15679;SDS011;15488;48.114;11.532;2023-04-24T14:11:26;1.43;;;1.10;;
15679;SDS011;15488;48.114;11.532;2023-04-24T14:13:54;0.80;;;0.80;;
15679;SDS011;15488;48.114;11.532;2023-04-24T14:16:22;2.10;;;1.10;;
15679;SDS011;15488;48.114;11.532;2023-04-24T14:18:51;3.10;;;1.60;;
15679;SDS011;15488;48.114;11.532;2023-04-24T14:21:18;1.20;;;1.03;;
15679;SDS011;15488;48.114;11.532;2023-04-24T14:23:46;2.27;;;1.30;;
15679;SDS011;15488;48.114;11.532;2023-04-24T14:26:13;1.53;;;1.17;;
15679;SDS011;15488;48.114;11.532;2023-04-24T14:28:41;1.73;;;1.17;;
15679;SDS011;15488;48.114;11.532;2023-04-24T14:31:08;1.57;;;0.97;;
15679;SDS011;15488;48.114;11.532;2023-04-24T14:33:36;1.90;;;1.10;;
15679;SDS011;15488;48.114;11.532;2023-04-24T14:36:04;1.30;;;1.20;;
15679;SDS011;15488;48.114;11.532;2023-04-24T14:38:32;2.10;;;1.23;;
15679;SDS011;15488;48.114;11.532;2023-04-24T14:41:00;2.63;;;1.93;;
15679;SDS011;15488;48.114;11.532;2023-04-24T14:43:33;3.07;;;2.10;;
15679;SDS011;15488;48.114;11.532;2023-04-24T14:46:01;1.83;;;1.37;;